sensor_id;sensor_type;location;lat;lon;timestamp;P1;durP1;ratioP1;P2;durP2;ratioP2
31083;SDS011;36333;51.382;0.016;2022-07-29T07:52:51;15.25;;;3.85;;
31083;SDS011;36333;51.382;0.016;2022-07-29T07:55:22;15.13;;;3.50;;
31083;SDS011;36333;51.382;0.016;2022-07-29T07:57:53;16.67;;;4.20;;
31083;SDS011;36333;51.382;0.016;2022-07-29T08:00:22;16.80;;;4.03;;
31083;SDS011;36333;51.382;0.016;2022-07-29T08:02:50;17.48;;;4.00;;
31083;SDS011;36333;51.382;0.016;2022-07-29T08:05:18;14.60;;;3.90;;
31083;SDS011;36333;51.382;0.016;2022-07-29T08:07:46;16.52;;;3.60;;
31083;SDS011;36333;51.382;0.016;2022-07-29T08:10:15;13.05;;;3.90;;
31083;SDS011;36333;51.382;0.016;2022-07-29T08:13:07;12.15;;;3.40;;
31083;SDS011;36333;51.382;0.016;2022-07-29T08:15:35;10.40;;;3.25;;
31083;SDS011;36333;51.382;0.016;2022-07-29T08:18:03;10.13;;;2.75;;
31083;SDS011;36333;51.382;0.016;2022-07-29T08:20:35;13.60;;;2.90;;
31083;SDS011;36333;51.382;0.016;2022-07-29T08:23:06;12.23;;;2.80;;
31083;SDS011;36333;51.382;0.016;2022-07-29T08:25:36;13.90;;;2.20;;
31083;SDS011;36333;51.382;0.016;2022-07-29T08:28:06;9.65;;;2.53;;
31083;SDS011;36333;51.382;0.016;2022-07-29T08:30:34;9.65;;;2.30;;
31083;SDS011;36333;51.382;0.016;2022-07-29T08:33:02;12.02;;;2.75;;
31083;SDS011;36333;51.382;0.016;2022-07-29T08:35:29;14.85;;;2.40;;
31083;SDS011;36333;51.382;0.016;2022-07-29T08:38:02;11.85;;;2.50;;
31083;SDS011;36333;51.382;0.016;2022-07-29T08:40:30;16.08;;;3.10;;
31083;SDS011;36333;51.382;0.016;2022-07-29T08:43:03;11.48;;;2.80;;
31083;SDS011;36333;51.382;0.016;2022-07-29T08:48:14;11.35;;;1.85;;
31083;SDS011;36333;51.382;0.016;2022-07-29T08:50:44;7.13;;;1.90;;
31083;SDS011;36333;51.382;0.016;2022-07-29T08:53:14;11.38;;;1.92;;
31083;SDS011;36333;51.382;0.016;2022-07-29T08:55:46;6.07;;;1.63;;
31083;SDS011;36333;51.382;0.016;2022-07-29T08:58:15;8.05;;;1.73;;
31083;SDS011;36333;51.382;0.016;2022-07-29T09:00:50;11.43;;;1.50;;
31083;SDS011;36333;51.382;0.016;2022-07-29T09:03:25;8.80;;;1.60;;
31083;SDS011;36333;51.382;0.016;2022-07-29T09:05:57;9.07;;;1.88;;
31083;SDS011;36333;51.382;0.016;2022-07-29T09:08:25;9.25;;;1.90;;
31083;SDS011;36333;51.382;0.016;2022-07-29T09:10:54;9.45;;;1.60;;
31083;SDS011;36333;51.382;0.016;2022-07-29T09:13:25;8.60;;;1.90;;
31083;SDS011;36333;51.382;0.016;2022-07-29T09:15:53;8.05;;;1.80;;
31083;SDS011;36333;51.382;0.016;2022-07-29T09:21:08;12.30;;;2.20;;
31083;SDS011;36333;51.382;0.016;2022-07-29T09:26:30;11.25;;;2.40;;
31083;SDS011;36333;51.382;0.016;2022-07-29T09:28:59;8.18;;;1.73;;
31083;SDS011;36333;51.382;0.016;2022-07-29T09:31:35;8.00;;;1.90;;
31083;SDS011;36333;51.382;0.016;2022-07-29T09:34:05;10.57;;;1.70;;
31083;SDS011;36333;51.382;0.016;2022-07-29T09:39:07;11.18;;;2.20;;
31083;SDS011;36333;51.382;0.016;2022-07-29T09:44:20;10.65;;;2.25;;
31083;SDS011;36333;51.382;0.016;2022-07-29T09:46:58;13.27;;;2.08;;
31083;SDS011;36333;51.382;0.016;2022-07-29T09:49:50;6.78;;;1.88;;
31083;SDS011;36333;51.382;0.016;2022-07-29T09:52:28;7.15;;;1.60;;
31083;SDS011;36333;51.382;0.016;2022-07-29T09:55:06;13.23;;;2.50;;
31083;SDS011;36333;51.382;0.016;2022-07-29T09:57:35;13.30;;;1.90;;
31083;SDS011;36333;51.382;0.016;2022-07-29T10:02:43;8.27;;;2.00;;
31083;SDS011;36333;51.382;0.016;2022-07-29T10:05:17;10.80;;;1.77;;
31083;SDS011;36333;51.382;0.016;2022-07-29T10:07:51;9.52;;;2.20;;
31083;SDS011;36333;51.382;0.016;2022-07-29T10:10:28;8.68;;;2.28;;
31083;SDS011;36333;51.382;0.016;2022-07-29T10:12:58;12.05;;;2.10;;
31083;SDS011;36333;51.382;0.016;2022-07-29T10:15:35;12.63;;;2.13;;
31083;SDS011;36333;51.382;0.016;2022-07-29T10:18:08;12.93;;;2.42;;
31083;SDS011;36333;51.382;0.016;2022-07-29T10:20:36;10.13;;;2.22;;
31083;SDS011;36333;51.382;0.016;2022-07-29T10:23:04;8.50;;;2.20;;
31083;SDS011;36333;51.382;0.016;2022-07-29T10:25:32;6.22;;;2.00;;
31083;SDS011;36333;51.382;0.016;2022-07-29T10:28:00;10.57;;;2.30;;
31083;SDS011;36333;51.382;0.016;2022-07-29T10:30:27;13.65;;;2.00;;
31083;SDS011;36333;51.382;0.016;2022-07-29T10:39:05;12.90;;;2.72;;
31083;SDS011;36333;51.382;0.016;2022-07-29T10:42:17;10.25;;;1.92;;
31083;SDS011;36333;51.382;0.016;2022-07-29T10:45:14;10.48;;;2.38;;
31083;SDS011;36333;51.382;0.016;2022-07-29T10:47:44;10.35;;;2.13;;
31083;SDS011;36333;51.382;0.016;2022-07-29T10:52:53;9.13;;;2.17;;
31083;SDS011;36333;51.382;0.016;2022-07-29T10:55:31;8.73;;;1.77;;
31083;SDS011;36333;51.382;0.016;2022-07-29T10:58:12;13.05;;;2.30;;
31083;SDS011;36333;51.382;0.016;2022-07-29T11:00:46;12.52;;;2.42;;
31083;SDS011;36333;51.382;0.016;2022-07-29T11:09:33;6.55;;;1.83;;
31083;SDS011;36333;51.382;0.016;2022-07-29T11:15:09;7.22;;;1.60;;
31083;SDS011;36333;51.382;0.016;2022-07-29T11:23:22;6.30;;;1.77;;
31083;SDS011;36333;51.382;0.016;2022-07-29T11:31:36;13.05;;;1.45;;
31083;SDS011;36333;51.382;0.016;2022-07-29T11:39:40;10.35;;;1.80;;
31083;SDS011;36333;51.382;0.016;2022-07-29T11:45:01;8.38;;;1.52;;
31083;SDS011;36333;51.382;0.016;2022-07-29T11:47:50;7.32;;;1.58;;
31083;SDS011;36333;51.382;0.016;2022-07-29T11:50:27;5.05;;;1.63;;
31083;SDS011;36333;51.382;0.016;2022-07-29T11:55:48;8.27;;;1.70;;
31083;SDS011;36333;51.382;0.016;2022-07-29T11:58:24;12.05;;;1.70;;
31083;SDS011;36333;51.382;0.016;2022-07-29T12:00:53;5.47;;;1.50;;
31083;SDS011;36333;51.382;0.016;2022-07-29T12:03:26;10.90;;;1.40;;
31083;SDS011;36333;51.382;0.016;2022-07-29T12:06:02;6.88;;;2.20;;
31083;SDS011;36333;51.382;0.016;2022-07-29T12:08:42;8.40;;;1.63;;
31083;SDS011;36333;51.382;0.016;2022-07-29T12:11:18;7.28;;;1.50;;
31083;SDS011;36333;51.382;0.016;2022-07-29T12:13:49;6.75;;;1.33;;
31083;SDS011;36333;51.382;0.016;2022-07-29T12:16:18;7.18;;;2.00;;
31083;SDS011;36333;51.382;0.016;2022-07-29T12:18:56;7.60;;;1.70;;
31083;SDS011;36333;51.382;0.016;2022-07-29T12:21:28;6.03;;;1.55;;
31083;SDS011;36333;51.382;0.016;2022-07-29T12:24:22;7.57;;;1.90;;
31083;SDS011;36333;51.382;0.016;2022-07-29T12:26:57;5.88;;;1.60;;
31083;SDS011;36333;51.382;0.016;2022-07-29T12:29:26;12.52;;;1.70;;
31083;SDS011;36333;51.382;0.016;2022-07-29T12:32:02;10.90;;;1.88;;
31083;SDS011;36333;51.382;0.016;2022-07-29T12:34:41;9.57;;;1.77;;
31083;SDS011;36333;51.382;0.016;2022-07-29T12:37:08;7.78;;;1.60;;
31083;SDS011;36333;51.382;0.016;2022-07-29T12:39:37;12.80;;;2.05;;
31083;SDS011;36333;51.382;0.016;2022-07-29T12:42:10;8.60;;;1.98;;
31083;SDS011;36333;51.382;0.016;2022-07-29T12:44:47;11.43;;;1.70;;
31083;SDS011;36333;51.382;0.016;2022-07-29T12:47:16;8.00;;;1.67;;
31083;SDS011;36333;51.382;0.016;2022-07-29T12:49:46;8.45;;;1.80;;
31083;SDS011;36333;51.382;0.016;2022-07-29T12:54:58;8.75;;;1.92;;
31083;SDS011;36333;51.382;0.016;2022-07-29T12:57:25;8.32;;;1.80;;
31083;SDS011;36333;51.382;0.016;2022-07-29T13:02:30;5.22;;;1.48;;
31083;SDS011;36333;51.382;0.016;2022-07-29T13:07:28;8.32;;;1.70;;
31083;SDS011;36333;51.382;0.016;2022-07-29T13:10:18;7.95;;;1.90;;
31083;SDS011;36333;51.382;0.016;2022-07-29T13:13:10;5.50;;;1.50;;
31083;SDS011;36333;51.382;0.016;2022-07-29T13:15:43;11.45;;;2.20;;
31083;SDS011;36333;51.382;0.016;2022-07-29T13:18:32;9.93;;;2.00;;
31083;SDS011;36333;51.382;0.016;2022-07-29T13:21:13;12.93;;;1.75;;
31083;SDS011;36333;51.382;0.016;2022-07-29T13:23:42;9.90;;;1.35;;
31083;SDS011;36333;51.382;0.016;2022-07-29T13:26:10;9.40;;;1.83;;
31083;SDS011;36333;51.382;0.016;2022-07-29T13:28:43;6.30;;;1.70;;
31083;SDS011;36333;51.382;0.016;2022-07-29T13:31:10;7.28;;;1.40;;
31083;SDS011;36333;51.382;0.016;2022-07-29T13:33:38;6.97;;;1.60;;
31083;SDS011;36333;51.382;0.016;2022-07-29T13:36:06;5.95;;;1.73;;
31083;SDS011;36333;51.382;0.016;2022-07-29T13:41:01;5.95;;;1.48;;
31083;SDS011;36333;51.382;0.016;2022-07-29T13:43:29;6.32;;;1.35;;
31083;SDS011;36333;51.382;0.016;2022-07-29T13:45:56;7.55;;;1.50;;
31083;SDS011;36333;51.382;0.016;2022-07-29T13:48:24;7.13;;;1.48;;
31083;SDS011;36333;51.382;0.016;2022-07-29T13:50:52;6.95;;;1.67;;
31083;SDS011;36333;51.382;0.016;2022-07-29T13:53:19;5.15;;;1.67;;
31083;SDS011;36333;51.382;0.016;2022-07-29T13:55:53;9.25;;;1.65;;
31083;SDS011;36333;51.382;0.016;2022-07-29T13:58:21;8.05;;;1.40;;
31083;SDS011;36333;51.382;0.016;2022-07-29T14:03:17;8.57;;;1.80;;
31083;SDS011;36333;51.382;0.016;2022-07-29T14:05:45;8.65;;;1.67;;
31083;SDS011;36333;51.382;0.016;2022-07-29T14:08:14;4.57;;;1.50;;
31083;SDS011;36333;51.382;0.016;2022-07-29T14:10:41;6.30;;;1.85;;
31083;SDS011;36333;51.382;0.016;2022-07-29T14:13:09;4.65;;;1.40;;
31083;SDS011;36333;51.382;0.016;2022-07-29T14:15:51;7.35;;;1.65;;
31083;SDS011;36333;51.382;0.016;2022-07-29T14:18:19;6.25;;;1.48;;
31083;SDS011;36333;51.382;0.016;2022-07-29T14:20:47;11.90;;;1.67;;
31083;SDS011;36333;51.382;0.016;2022-07-29T14:23:15;6.22;;;1.60;;
31083;SDS011;36333;51.382;0.016;2022-07-29T14:25:46;5.55;;;1.60;;
31083;SDS011;36333;51.382;0.016;2022-07-29T14:28:15;10.98;;;1.70;;
31083;SDS011;36333;51.382;0.016;2022-07-29T14:30:43;7.40;;;1.58;;
31083;SDS011;36333;51.382;0.016;2022-07-29T14:33:11;5.70;;;1.63;;
31083;SDS011;36333;51.382;0.016;2022-07-29T14:35:38;8.02;;;2.05;;
31083;SDS011;36333;51.382;0.016;2022-07-29T14:38:06;6.05;;;1.63;;
31083;SDS011;36333;51.382;0.016;2022-07-29T14:40:34;6.20;;;1.35;;
31083;SDS011;36333;51.382;0.016;2022-07-29T14:43:02;5.55;;;1.40;;
31083;SDS011;36333;51.382;0.016;2022-07-29T14:45:29;9.48;;;1.60;;
31083;SDS011;36333;51.382;0.016;2022-07-29T14:47:58;6.03;;;1.50;;
31083;SDS011;36333;51.382;0.016;2022-07-29T14:50:26;4.32;;;1.60;;
31083;SDS011;36333;51.382;0.016;2022-07-29T14:52:58;7.45;;;1.50;;
31083;SDS011;36333;51.382;0.016;2022-07-29T14:55:26;7.53;;;1.40;;
31083;SDS011;36333;51.382;0.016;2022-07-29T14:57:54;7.80;;;1.40;;
31083;SDS011;36333;51.382;0.016;2022-07-29T15:03:00;8.32;;;1.45;;
31083;SDS011;36333;51.382;0.016;2022-07-29T15:05:29;5.78;;;1.58;;
31083;SDS011;36333;51.382;0.016;2022-07-29T15:07:58;6.60;;;1.52;;
31083;SDS011;36333;51.382;0.016;2022-07-29T15:10:26;5.38;;;1.63;;
31083;SDS011;36333;51.382;0.016;2022-07-29T15:12:55;4.72;;;1.20;;
31083;SDS011;36333;51.382;0.016;2022-07-29T15:17:50;5.05;;;1.25;;
31083;SDS011;36333;51.382;0.016;2022-07-29T15:22:45;5.47;;;1.52;;
31083;SDS011;36333;51.382;0.016;2022-07-29T15:30:16;8.38;;;1.77;;
31083;SDS011;36333;51.382;0.016;2022-07-29T15:33:02;5.30;;;1.50;;
31083;SDS011;36333;51.382;0.016;2022-07-29T15:35:30;4.68;;;1.45;;
31083;SDS011;36333;51.382;0.016;2022-07-29T15:37:58;4.57;;;1.42;;
31083;SDS011;36333;51.382;0.016;2022-07-29T15:45:21;8.02;;;1.40;;
31083;SDS011;36333;51.382;0.016;2022-07-29T15:50:16;6.85;;;1.77;;
31083;SDS011;36333;51.382;0.016;2022-07-29T15:52:45;11.45;;;2.15;;
31083;SDS011;36333;51.382;0.016;2022-07-29T15:55:13;9.95;;;1.77;;
31083;SDS011;36333;51.382;0.016;2022-07-29T15:57:42;8.52;;;2.00;;
31083;SDS011;36333;51.382;0.016;2022-07-29T16:00:10;6.70;;;2.13;;
31083;SDS011;36333;51.382;0.016;2022-07-29T16:02:38;10.80;;;2.60;;
31083;SDS011;36333;51.382;0.016;2022-07-29T16:05:05;7.05;;;2.97;;
31083;SDS011;36333;51.382;0.016;2022-07-29T16:07:35;8.57;;;3.00;;
31083;SDS011;36333;51.382;0.016;2022-07-29T16:10:03;7.80;;;1.65;;
31083;SDS011;36333;51.382;0.016;2022-07-29T16:12:33;7.32;;;1.67;;
31083;SDS011;36333;51.382;0.016;2022-07-29T16:15:01;5.50;;;1.90;;
31083;SDS011;36333;51.382;0.016;2022-07-29T16:17:35;4.43;;;1.77;;
31083;SDS011;36333;51.382;0.016;2022-07-29T16:20:04;6.75;;;1.45;;
31083;SDS011;36333;51.382;0.016;2022-07-29T16:22:32;5.57;;;1.60;;
31083;SDS011;36333;51.382;0.016;2022-07-29T16:25:00;8.77;;;1.60;;
31083;SDS011;36333;51.382;0.016;2022-07-29T16:30:05;6.60;;;1.80;;
31083;SDS011;36333;51.382;0.016;2022-07-29T16:32:35;5.95;;;1.60;;
31083;SDS011;36333;51.382;0.016;2022-07-29T16:35:04;7.78;;;1.80;;
31083;SDS011;36333;51.382;0.016;2022-07-29T16:37:32;6.65;;;2.50;;
31083;SDS011;36333;51.382;0.016;2022-07-29T16:40:04;6.40;;;1.77;;
31083;SDS011;36333;51.382;0.016;2022-07-29T16:42:37;6.78;;;1.75;;
31083;SDS011;36333;51.382;0.016;2022-07-29T16:45:16;5.93;;;1.52;;
31083;SDS011;36333;51.382;0.016;2022-07-29T16:47:47;6.72;;;1.52;;
31083;SDS011;36333;51.382;0.016;2022-07-29T16:50:16;5.85;;;1.50;;
31083;SDS011;36333;51.382;0.016;2022-07-29T16:55:11;9.55;;;1.67;;
31083;SDS011;36333;51.382;0.016;2022-07-29T16:57:38;10.88;;;1.88;;
31083;SDS011;36333;51.382;0.016;2022-07-29T17:00:08;13.57;;;2.65;;
31083;SDS011;36333;51.382;0.016;2022-07-29T17:02:36;7.28;;;1.90;;
31083;SDS011;36333;51.382;0.016;2022-07-29T17:05:05;10.43;;;2.00;;
31083;SDS011;36333;51.382;0.016;2022-07-29T17:07:33;6.47;;;1.65;;
31083;SDS011;36333;51.382;0.016;2022-07-29T17:10:01;13.27;;;1.60;;
31083;SDS011;36333;51.382;0.016;2022-07-29T17:12:31;10.10;;;1.67;;
31083;SDS011;36333;51.382;0.016;2022-07-29T17:14:58;12.23;;;2.13;;
31083;SDS011;36333;51.382;0.016;2022-07-29T17:17:26;7.05;;;1.73;;
31083;SDS011;36333;51.382;0.016;2022-07-29T17:20:06;10.25;;;1.92;;
31083;SDS011;36333;51.382;0.016;2022-07-29T17:22:35;6.28;;;1.67;;
31083;SDS011;36333;51.382;0.016;2022-07-29T17:25:04;11.43;;;1.80;;
31083;SDS011;36333;51.382;0.016;2022-07-29T17:27:33;8.32;;;1.92;;
31083;SDS011;36333;51.382;0.016;2022-07-29T17:30:01;9.45;;;1.90;;
31083;SDS011;36333;51.382;0.016;2022-07-29T17:32:30;7.63;;;1.67;;
31083;SDS011;36333;51.382;0.016;2022-07-29T17:35:02;8.40;;;1.70;;
31083;SDS011;36333;51.382;0.016;2022-07-29T17:37:50;9.73;;;1.85;;
31083;SDS011;36333;51.382;0.016;2022-07-29T17:40:18;8.02;;;1.77;;
31083;SDS011;36333;51.382;0.016;2022-07-29T17:45:14;7.47;;;1.80;;
31083;SDS011;36333;51.382;0.016;2022-07-29T17:50:10;10.35;;;1.60;;
31083;SDS011;36333;51.382;0.016;2022-07-29T17:52:40;9.40;;;1.80;;
31083;SDS011;36333;51.382;0.016;2022-07-29T17:55:07;6.90;;;1.45;;
31083;SDS011;36333;51.382;0.016;2022-07-29T17:57:36;8.80;;;1.83;;
31083;SDS011;36333;51.382;0.016;2022-07-29T18:00:04;10.63;;;1.85;;
31083;SDS011;36333;51.382;0.016;2022-07-29T18:02:34;9.38;;;1.73;;
31083;SDS011;36333;51.382;0.016;2022-07-29T18:05:04;9.48;;;1.80;;
31083;SDS011;36333;51.382;0.016;2022-07-29T18:12:26;9.15;;;1.98;;
31083;SDS011;36333;51.382;0.016;2022-07-29T18:14:54;10.32;;;1.92;;
31083;SDS011;36333;51.382;0.016;2022-07-29T18:17:21;4.90;;;1.80;;
31083;SDS011;36333;51.382;0.016;2022-07-29T18:20:09;10.35;;;2.00;;
31083;SDS011;36333;51.382;0.016;2022-07-29T18:22:37;7.70;;;2.65;;
31083;SDS011;36333;51.382;0.016;2022-07-29T18:25:04;7.18;;;2.20;;
31083;SDS011;36333;51.382;0.016;2022-07-29T18:30:00;13.75;;;4.18;;
31083;SDS011;36333;51.382;0.016;2022-07-29T18:32:31;13.82;;;3.67;;
31083;SDS011;36333;51.382;0.016;2022-07-29T18:34:58;8.63;;;2.53;;
31083;SDS011;36333;51.382;0.016;2022-07-29T18:37:28;6.72;;;2.13;;
31083;SDS011;36333;51.382;0.016;2022-07-29T18:40:16;11.55;;;2.58;;
31083;SDS011;36333;51.382;0.016;2022-07-29T18:42:47;10.48;;;2.20;;
31083;SDS011;36333;51.382;0.016;2022-07-29T18:45:14;9.48;;;2.50;;
31083;SDS011;36333;51.382;0.016;2022-07-29T18:47:45;7.47;;;2.05;;
31083;SDS011;36333;51.382;0.016;2022-07-29T18:50:15;8.32;;;2.40;;
31083;SDS011;36333;51.382;0.016;2022-07-29T18:52:43;7.53;;;1.80;;
31083;SDS011;36333;51.382;0.016;2022-07-29T18:55:12;7.90;;;1.85;;
31083;SDS011;36333;51.382;0.016;2022-07-29T18:57:40;10.45;;;1.80;;
31083;SDS011;36333;51.382;0.016;2022-07-29T19:00:23;8.63;;;1.95;;
31083;SDS011;36333;51.382;0.016;2022-07-29T19:02:52;9.75;;;1.83;;
31083;SDS011;36333;51.382;0.016;2022-07-29T19:07:48;14.82;;;2.38;;
31083;SDS011;36333;51.382;0.016;2022-07-29T19:10:16;10.80;;;2.08;;
31083;SDS011;36333;51.382;0.016;2022-07-29T19:12:44;6.05;;;2.00;;
31083;SDS011;36333;51.382;0.016;2022-07-29T19:15:12;8.10;;;2.50;;
31083;SDS011;36333;51.382;0.016;2022-07-29T19:17:46;5.10;;;1.90;;
31083;SDS011;36333;51.382;0.016;2022-07-29T19:20:15;9.73;;;2.17;;
31083;SDS011;36333;51.382;0.016;2022-07-29T19:22:43;9.35;;;2.15;;
31083;SDS011;36333;51.382;0.016;2022-07-29T19:25:11;10.70;;;2.10;;
31083;SDS011;36333;51.382;0.016;2022-07-29T19:27:39;8.98;;;1.80;;
31083;SDS011;36333;51.382;0.016;2022-07-29T19:30:07;9.95;;;2.10;;
31083;SDS011;36333;51.382;0.016;2022-07-29T19:32:35;10.85;;;2.00;;
31083;SDS011;36333;51.382;0.016;2022-07-29T19:35:04;9.48;;;1.92;;
31083;SDS011;36333;51.382;0.016;2022-07-29T19:37:50;8.90;;;2.47;;
31083;SDS011;36333;51.382;0.016;2022-07-29T19:40:19;7.18;;;1.92;;
31083;SDS011;36333;51.382;0.016;2022-07-29T19:42:47;6.13;;;2.20;;
31083;SDS011;36333;51.382;0.016;2022-07-29T19:45:18;10.40;;;2.28;;
31083;SDS011;36333;51.382;0.016;2022-07-29T19:47:46;14.13;;;2.05;;
31083;SDS011;36333;51.382;0.016;2022-07-29T19:50:15;11.60;;;2.40;;
31083;SDS011;36333;51.382;0.016;2022-07-29T19:52:43;7.10;;;2.00;;
31083;SDS011;36333;51.382;0.016;2022-07-29T19:55:13;11.10;;;2.00;;
31083;SDS011;36333;51.382;0.016;2022-07-29T19:57:41;8.23;;;2.05;;
31083;SDS011;36333;51.382;0.016;2022-07-29T20:00:09;9.73;;;2.00;;
31083;SDS011;36333;51.382;0.016;2022-07-29T20:02:38;9.93;;;2.20;;
31083;SDS011;36333;51.382;0.016;2022-07-29T20:05:08;10.52;;;2.08;;
31083;SDS011;36333;51.382;0.016;2022-07-29T20:07:36;7.68;;;2.25;;
31083;SDS011;36333;51.382;0.016;2022-07-29T20:10:05;9.25;;;2.17;;
31083;SDS011;36333;51.382;0.016;2022-07-29T20:12:33;6.15;;;1.90;;
31083;SDS011;36333;51.382;0.016;2022-07-29T20:15:01;7.97;;;2.00;;
31083;SDS011;36333;51.382;0.016;2022-07-29T20:17:30;8.50;;;2.30;;
31083;SDS011;36333;51.382;0.016;2022-07-29T20:20:06;9.30;;;1.90;;
31083;SDS011;36333;51.382;0.016;2022-07-29T20:22:35;5.63;;;2.00;;
31083;SDS011;36333;51.382;0.016;2022-07-29T20:25:04;9.88;;;2.50;;
31083;SDS011;36333;51.382;0.016;2022-07-29T20:27:32;9.52;;;2.17;;
31083;SDS011;36333;51.382;0.016;2022-07-29T20:30:03;7.40;;;2.25;;
31083;SDS011;36333;51.382;0.016;2022-07-29T20:32:32;5.57;;;2.00;;
31083;SDS011;36333;51.382;0.016;2022-07-29T20:35:00;10.77;;;2.10;;
31083;SDS011;36333;51.382;0.016;2022-07-29T20:37:27;12.75;;;2.53;;
31083;SDS011;36333;51.382;0.016;2022-07-29T20:39:55;11.55;;;2.60;;
31083;SDS011;36333;51.382;0.016;2022-07-29T20:42:23;7.78;;;2.00;;
31083;SDS011;36333;51.382;0.016;2022-07-29T20:44:50;10.10;;;2.60;;
31083;SDS011;36333;51.382;0.016;2022-07-29T20:47:19;9.90;;;2.50;;
31083;SDS011;36333;51.382;0.016;2022-07-29T20:49:48;8.27;;;2.70;;
31083;SDS011;36333;51.382;0.016;2022-07-29T20:52:16;10.75;;;2.50;;
31083;SDS011;36333;51.382;0.016;2022-07-29T20:54:47;9.50;;;2.80;;
31083;SDS011;36333;51.382;0.016;2022-07-29T20:57:15;8.07;;;2.50;;
31083;SDS011;36333;51.382;0.016;2022-07-29T21:00:03;6.80;;;2.42;;
31083;SDS011;36333;51.382;0.016;2022-07-29T21:02:32;14.02;;;2.70;;
31083;SDS011;36333;51.382;0.016;2022-07-29T21:05:00;10.57;;;2.20;;
31083;SDS011;36333;51.382;0.016;2022-07-29T21:07:28;11.65;;;2.60;;
31083;SDS011;36333;51.382;0.016;2022-07-29T21:09:55;12.00;;;2.22;;
31083;SDS011;36333;51.382;0.016;2022-07-29T21:12:23;8.77;;;2.28;;
31083;SDS011;36333;51.382;0.016;2022-07-29T21:14:51;5.20;;;2.10;;
31083;SDS011;36333;51.382;0.016;2022-07-29T21:17:18;9.15;;;2.40;;
31083;SDS011;36333;51.382;0.016;2022-07-29T21:19:49;8.63;;;2.45;;
31083;SDS011;36333;51.382;0.016;2022-07-29T21:22:19;9.43;;;2.28;;
31083;SDS011;36333;51.382;0.016;2022-07-29T21:24:48;9.02;;;2.67;;
31083;SDS011;36333;51.382;0.016;2022-07-29T21:27:16;9.90;;;2.30;;
31083;SDS011;36333;51.382;0.016;2022-07-29T21:30:05;6.78;;;2.22;;
31083;SDS011;36333;51.382;0.016;2022-07-29T21:32:33;7.88;;;2.65;;
31083;SDS011;36333;51.382;0.016;2022-07-29T21:35:02;10.48;;;2.90;;
31083;SDS011;36333;51.382;0.016;2022-07-29T21:37:48;13.10;;;2.80;;
31083;SDS011;36333;51.382;0.016;2022-07-29T21:40:16;9.27;;;2.55;;
31083;SDS011;36333;51.382;0.016;2022-07-29T21:42:43;7.82;;;2.30;;
31083;SDS011;36333;51.382;0.016;2022-07-29T21:45:11;7.45;;;2.25;;
31083;SDS011;36333;51.382;0.016;2022-07-29T21:47:42;11.23;;;2.75;;
31083;SDS011;36333;51.382;0.016;2022-07-29T21:50:09;12.38;;;2.80;;
31083;SDS011;36333;51.382;0.016;2022-07-29T21:52:37;9.38;;;2.40;;
31083;SDS011;36333;51.382;0.016;2022-07-29T21:55:06;10.65;;;2.53;;
31083;SDS011;36333;51.382;0.016;2022-07-29T21:57:36;11.52;;;2.63;;
31083;SDS011;36333;51.382;0.016;2022-07-29T22:00:04;10.43;;;2.38;;
31083;SDS011;36333;51.382;0.016;2022-07-29T22:02:38;10.13;;;2.33;;
31083;SDS011;36333;51.382;0.016;2022-07-29T22:05:06;10.20;;;2.38;;
31083;SDS011;36333;51.382;0.016;2022-07-29T22:07:33;11.75;;;2.60;;
31083;SDS011;36333;51.382;0.016;2022-07-29T22:10:21;9.30;;;2.40;;
31083;SDS011;36333;51.382;0.016;2022-07-29T22:12:50;6.97;;;2.20;;
31083;SDS011;36333;51.382;0.016;2022-07-29T22:15:19;10.57;;;2.10;;
31083;SDS011;36333;51.382;0.016;2022-07-29T22:17:47;13.43;;;2.53;;
31083;SDS011;36333;51.382;0.016;2022-07-29T22:20:15;9.95;;;2.00;;
31083;SDS011;36333;51.382;0.016;2022-07-29T22:22:43;8.82;;;2.17;;
31083;SDS011;36333;51.382;0.016;2022-07-29T22:25:10;14.40;;;2.10;;
31083;SDS011;36333;51.382;0.016;2022-07-29T22:27:38;9.55;;;2.25;;
31083;SDS011;36333;51.382;0.016;2022-07-29T22:30:06;7.45;;;2.00;;
31083;SDS011;36333;51.382;0.016;2022-07-29T22:32:35;9.27;;;2.13;;
31083;SDS011;36333;51.382;0.016;2022-07-29T22:35:03;9.80;;;2.17;;
31083;SDS011;36333;51.382;0.016;2022-07-29T22:39:59;7.22;;;1.90;;
31083;SDS011;36333;51.382;0.016;2022-07-29T22:42:26;7.13;;;2.03;;
31083;SDS011;36333;51.382;0.016;2022-07-29T22:44:54;11.15;;;1.88;;
31083;SDS011;36333;51.382;0.016;2022-07-29T22:47:21;8.00;;;2.15;;
31083;SDS011;36333;51.382;0.016;2022-07-29T22:50:09;9.75;;;2.10;;
31083;SDS011;36333;51.382;0.016;2022-07-29T22:52:37;9.88;;;2.05;;
31083;SDS011;36333;51.382;0.016;2022-07-29T22:55:04;8.98;;;2.10;;
31083;SDS011;36333;51.382;0.016;2022-07-29T22:57:32;7.25;;;2.00;;
31083;SDS011;36333;51.382;0.016;2022-07-29T23:00:00;10.82;;;2.20;;
31083;SDS011;36333;51.382;0.016;2022-07-29T23:02:28;10.10;;;2.30;;
31083;SDS011;36333;51.382;0.016;2022-07-29T23:04:56;7.38;;;2.15;;
31083;SDS011;36333;51.382;0.016;2022-07-29T23:07:23;7.47;;;2.33;;
31083;SDS011;36333;51.382;0.016;2022-07-29T23:09:51;13.45;;;5.30;;
31083;SDS011;36333;51.382;0.016;2022-07-29T23:12:18;9.15;;;2.40;;
31083;SDS011;36333;51.382;0.016;2022-07-29T23:14:46;7.32;;;2.17;;
31083;SDS011;36333;51.382;0.016;2022-07-29T23:17:14;8.00;;;2.05;;
31083;SDS011;36333;51.382;0.016;2022-07-29T23:19:41;8.95;;;2.13;;
31083;SDS011;36333;51.382;0.016;2022-07-29T23:22:10;10.30;;;2.30;;
31083;SDS011;36333;51.382;0.016;2022-07-29T23:24:38;10.93;;;2.47;;
31083;SDS011;36333;51.382;0.016;2022-07-29T23:27:06;10.85;;;2.20;;
31083;SDS011;36333;51.382;0.016;2022-07-29T23:29:34;9.85;;;2.33;;
31083;SDS011;36333;51.382;0.016;2022-07-29T23:32:02;13.85;;;2.30;;
31083;SDS011;36333;51.382;0.016;2022-07-29T23:34:30;5.32;;;2.05;;
31083;SDS011;36333;51.382;0.016;2022-07-29T23:36:58;9.50;;;1.90;;
31083;SDS011;36333;51.382;0.016;2022-07-29T23:41:53;6.38;;;1.90;;
31083;SDS011;36333;51.382;0.016;2022-07-29T23:44:21;6.40;;;2.00;;
31083;SDS011;36333;51.382;0.016;2022-07-29T23:46:48;6.28;;;2.20;;
31083;SDS011;36333;51.382;0.016;2022-07-29T23:49:16;10.05;;;1.90;;
31083;SDS011;36333;51.382;0.016;2022-07-29T23:51:44;7.97;;;2.40;;
31083;SDS011;36333;51.382;0.016;2022-07-29T23:54:11;9.00;;;2.35;;
31083;SDS011;36333;51.382;0.016;2022-07-29T23:56:39;5.95;;;2.25;;
31083;SDS011;36333;51.382;0.016;2022-07-29T23:59:06;10.10;;;2.50;;
